createdAt,value
2018-01-22T00:02:02.268Z,1.63
2018-01-22T00:04:32.922Z,1.30
2018-01-22T00:07:02.461Z,1.47
2018-01-22T00:09:30.018Z,1.30
2018-01-22T00:11:58.896Z,1.70
2018-01-22T00:14:26.470Z,2.00
2018-01-22T00:16:58.114Z,1.00
2018-01-22T00:19:25.753Z,1.43
2018-01-22T00:21:53.332Z,3.47
2018-01-22T00:24:25.628Z,1.37
2018-01-22T00:26:53.964Z,0.93
2018-01-22T00:29:28.559Z,1.10
2018-01-22T00:32:00.615Z,1.63
2018-01-22T00:34:31.564Z,1.40
2018-01-22T00:37:05.447Z,1.00
2018-01-22T00:39:33.916Z,1.20
2018-01-22T00:42:02.905Z,1.07
2018-01-22T00:44:30.433Z,1.37
2018-01-22T00:46:58.004Z,1.10
2018-01-22T00:49:25.555Z,1.10
2018-01-22T00:51:53.861Z,1.00
2018-01-22T00:54:22.208Z,1.40
2018-01-22T00:56:50.529Z,1.57
2018-01-22T00:59:18.096Z,1.20
2018-01-22T01:01:45.632Z,1.00
2018-01-22T01:04:13.907Z,1.80
2018-01-22T01:06:41.517Z,0.90
2018-01-22T01:09:14.855Z,1.10
2018-01-22T01:11:42.380Z,1.20
2018-01-22T01:14:09.911Z,2.40
2018-01-22T01:16:37.478Z,1.07
2018-01-22T01:19:05.003Z,1.30
2018-01-22T01:21:35.745Z,1.60
2018-01-22T01:24:03.292Z,0.93
2018-01-22T01:26:32.673Z,2.40
2018-01-22T01:29:00.242Z,1.03
2018-01-22T01:31:27.821Z,1.33
2018-01-22T01:33:55.347Z,1.87
2018-01-22T01:36:22.944Z,1.30
2018-01-22T01:38:51.318Z,2.23
2018-01-22T01:41:18.867Z,1.37
2018-01-22T01:43:47.332Z,1.30
2018-01-22T06:06:20.703Z,25.80
2018-01-22T06:08:49.149Z,30.10
2018-01-22T06:11:17.415Z,33.27
2018-01-22T06:13:44.922Z,32.53
2018-01-22T06:16:12.446Z,34.70
2018-01-22T06:18:40.729Z,36.03
2018-01-22T06:21:09.023Z,34.10
2018-01-22T06:23:36.534Z,39.07
2018-01-22T06:26:04.071Z,29.30
2018-01-22T06:28:31.583Z,33.30
2018-01-22T06:30:59.850Z,35.10
2018-01-22T06:33:28.145Z,29.60
2018-01-22T06:35:56.436Z,36.57
2018-01-22T06:38:23.939Z,36.67
2018-01-22T06:40:51.467Z,32.93
2018-01-22T06:43:18.999Z,38.60
2018-01-22T06:45:46.504Z,30.80
2018-01-22T06:48:14.035Z,33.50
2018-01-22T06:50:41.538Z,34.77
2018-01-22T06:53:09.071Z,38.77
2018-01-22T06:55:36.575Z,36.60
2018-01-22T06:58:04.881Z,39.60
2018-01-22T07:00:32.391Z,34.70
2018-01-22T07:02:59.892Z,35.03
2018-01-22T07:05:27.448Z,38.63
2018-01-22T07:07:55.099Z,57.50
2018-01-22T07:10:23.404Z,56.03
2018-01-22T07:12:50.924Z,46.57
2018-01-22T07:15:19.219Z,51.23
2018-01-22T07:17:47.494Z,48.83
2018-01-22T07:20:16.726Z,47.40
2018-01-22T07:22:44.253Z,53.90
2018-01-22T07:25:12.519Z,52.67
2018-01-22T07:27:40.807Z,50.83
2018-01-22T07:30:09.075Z,43.80
2018-01-22T07:32:37.373Z,44.03
2018-01-22T07:35:04.876Z,48.33
2018-01-22T07:37:32.409Z,45.93
2018-01-22T07:39:59.938Z,47.83
2018-01-22T07:42:28.242Z,44.47
2018-01-22T07:44:55.743Z,47.70
2018-01-22T07:47:23.283Z,44.90
2018-01-22T07:49:50.783Z,44.17
2018-01-22T07:52:19.051Z,45.83
2018-01-22T07:54:47.347Z,36.87
2018-01-22T07:57:14.878Z,46.40
2018-01-22T07:59:42.386Z,45.90
2018-01-22T08:02:09.927Z,46.83
2018-01-22T08:04:37.426Z,42.20
2018-01-22T08:07:04.930Z,41.93
2018-01-22T08:09:33.226Z,43.23
2018-01-22T08:12:00.770Z,43.03
2018-01-22T08:14:29.046Z,51.87
2018-01-22T08:16:57.323Z,41.20
2018-01-22T08:19:25.626Z,40.97
2018-01-22T08:21:53.132Z,38.60
2018-01-22T08:24:20.655Z,39.43
2018-01-22T08:26:48.155Z,47.40
2018-01-22T08:29:15.683Z,40.40
2018-01-22T08:31:43.183Z,41.70
2018-01-22T08:34:11.486Z,45.40
2018-01-22T08:36:38.994Z,45.93
2018-01-22T08:39:06.491Z,45.73
2018-01-22T08:41:34.792Z,48.17
2018-01-22T08:44:02.334Z,36.27
2018-01-22T08:46:29.842Z,44.40
2018-01-22T08:48:57.347Z,44.67
2018-01-22T08:51:25.643Z,51.27
2018-01-22T08:53:53.142Z,37.97
2018-01-22T08:56:20.663Z,39.10
2018-01-22T08:58:48.168Z,49.47
2018-01-22T09:01:15.708Z,42.37
2018-01-22T09:03:43.206Z,43.07
2018-01-22T09:06:11.472Z,39.80
2018-01-22T09:08:39.011Z,43.47
2018-01-22T09:11:06.513Z,41.17
2018-01-22T09:13:34.787Z,48.33
2018-01-22T09:16:03.080Z,41.77
2018-01-22T09:18:30.581Z,39.80
2018-01-22T09:20:58.119Z,34.57
2018-01-22T09:23:25.618Z,35.37
2018-01-22T09:25:53.080Z,33.47
2018-01-22T09:28:20.647Z,36.80
2018-01-22T09:30:48.915Z,44.83
2018-01-22T09:33:16.439Z,37.63
2018-01-22T09:35:43.930Z,39.10
2018-01-22T09:38:11.454Z,29.90
2018-01-22T09:40:38.978Z,33.90
2018-01-22T09:43:06.522Z,42.93
2018-01-22T09:45:34.796Z,33.07
2018-01-22T09:48:03.075Z,31.60
2018-01-22T09:50:31.364Z,29.93
2018-01-22T09:52:58.899Z,34.70
2018-01-22T09:55:27.172Z,32.87
2018-01-22T09:57:54.778Z,38.93
2018-01-22T10:00:22.316Z,32.30
2018-01-22T10:02:50.590Z,36.13
2018-01-22T10:05:18.870Z,38.27
2018-01-22T10:07:47.162Z,35.93
2018-01-22T10:10:14.664Z,34.90
2018-01-22T10:12:42.194Z,30.60
2018-01-22T10:15:09.700Z,32.80
2018-01-22T10:17:37.226Z,36.93
2018-01-22T10:20:04.727Z,31.37
2018-01-22T10:22:33.019Z,34.87
2018-01-22T10:25:00.531Z,31.77
2018-01-22T10:27:28.055Z,32.50
2018-01-22T10:29:55.583Z,35.10
2018-01-22T10:32:23.875Z,33.80
2018-01-22T10:34:51.378Z,28.83
2018-01-22T10:37:18.920Z,30.63
2018-01-22T10:39:46.440Z,26.00
2018-01-22T10:42:14.707Z,27.40
2018-01-22T10:44:43.003Z,31.00
2018-01-22T10:47:11.272Z,26.20
2018-01-22T10:49:39.562Z,35.53
2018-01-22T10:52:07.063Z,26.30
2018-01-22T10:54:34.579Z,25.13
2018-01-22T10:59:36.027Z,27.97
2018-01-22T11:02:04.319Z,18.93
2018-01-22T11:04:32.583Z,22.33
2018-01-22T11:07:00.874Z,30.87
2018-01-22T11:09:29.140Z,21.30
2018-01-22T11:11:57.437Z,23.67
2018-01-22T11:14:24.977Z,18.77
2018-01-22T11:16:53.280Z,21.10
2018-01-22T11:19:20.780Z,21.33
2018-01-22T11:21:48.281Z,18.30
2018-01-22T11:24:15.809Z,23.57
2018-01-22T11:26:43.311Z,20.30
2018-01-22T11:29:10.840Z,18.50
2018-01-22T11:31:39.104Z,12.57
2018-01-22T11:34:06.631Z,19.17
2018-01-22T11:36:34.131Z,18.57
2018-01-22T11:39:01.659Z,16.67
2018-01-22T11:41:29.185Z,19.03
2018-01-22T11:43:56.710Z,15.93
2018-01-22T11:46:25.000Z,12.37
2018-01-22T11:48:53.290Z,20.07
2018-01-22T11:51:20.810Z,12.77
2018-01-22T11:53:48.311Z,15.87
2018-01-22T11:56:15.834Z,17.80
2018-01-22T11:58:43.334Z,16.47
2018-01-22T12:01:13.476Z,20.50
2018-01-22T12:03:41.737Z,21.97
2018-01-22T12:06:09.326Z,21.00
2018-01-22T12:08:36.823Z,16.70
2018-01-22T12:11:05.218Z,14.83
2018-01-22T12:13:32.722Z,26.40
2018-01-22T12:16:00.222Z,27.67
2018-01-22T12:18:28.518Z,22.00
2018-01-22T12:20:56.018Z,18.70
2018-01-22T12:23:23.540Z,25.53
2018-01-22T12:25:51.042Z,21.07
2018-01-22T12:28:18.574Z,21.97
2018-01-22T12:30:46.080Z,16.93
2018-01-22T12:33:14.366Z,21.33
2018-01-22T12:35:42.631Z,17.20
2018-01-22T12:38:10.924Z,23.83
2018-01-22T12:40:39.208Z,11.10
2018-01-22T12:43:06.704Z,13.00
2018-01-22T12:45:34.227Z,16.20
2018-01-22T12:48:01.740Z,14.30
2018-01-22T12:50:29.272Z,15.40
2018-01-22T12:52:56.771Z,10.97
2018-01-22T12:55:24.298Z,14.67
2018-01-22T12:57:51.818Z,13.23
2018-01-22T13:00:19.312Z,15.57
2018-01-22T13:02:46.848Z,24.20
2018-01-22T13:05:14.355Z,15.30
2018-01-22T13:07:41.855Z,13.77
2018-01-22T13:10:09.385Z,17.40
2018-01-22T13:12:37.727Z,16.67
2018-01-22T13:15:05.250Z,12.80
2018-01-22T13:17:32.782Z,13.00
2018-01-22T13:20:00.276Z,16.93
2018-01-22T13:22:27.782Z,18.47
2018-01-22T13:24:55.309Z,29.20
2018-01-22T13:27:22.811Z,20.93
2018-01-22T13:29:50.335Z,25.57
2018-01-22T13:32:17.859Z,18.63
2018-01-22T13:37:20.863Z,19.30
2018-01-22T13:39:49.154Z,31.93
2018-01-22T13:42:16.654Z,17.00
2018-01-22T13:44:44.178Z,24.80
2018-01-22T13:47:11.674Z,25.27
2018-01-22T13:49:39.194Z,10.90
2018-01-22T13:52:06.694Z,22.93
2018-01-22T13:54:34.214Z,10.07
2018-01-22T13:57:01.714Z,13.07
2018-01-22T13:59:29.446Z,15.37
2018-01-22T14:01:56.950Z,13.00
2018-01-22T14:04:24.462Z,16.27
2018-01-22T14:06:51.987Z,16.47
2018-01-22T14:09:20.261Z,13.03
2018-01-22T14:11:48.547Z,14.87
2018-01-22T14:14:16.071Z,15.43
2018-01-22T14:16:43.572Z,16.57
2018-01-22T14:19:11.098Z,31.83
2018-01-22T14:21:38.606Z,25.13
2018-01-22T14:24:06.131Z,15.70
2018-01-22T14:29:08.294Z,37.80
2018-01-22T14:31:35.803Z,24.40
2018-01-22T14:34:03.347Z,31.73
2018-01-22T14:36:30.880Z,30.70
2018-01-22T14:38:59.175Z,18.07
2018-01-22T14:41:27.442Z,22.53
2018-01-22T14:43:55.760Z,15.67
2018-01-22T14:46:23.289Z,15.60
2018-01-22T14:48:51.558Z,16.57
2018-01-22T14:51:19.846Z,20.80
2018-01-22T14:53:47.367Z,24.60
2018-01-22T14:56:14.900Z,25.00
2018-01-22T14:58:42.401Z,15.17
2018-01-22T15:01:10.692Z,11.53
2018-01-22T15:03:38.987Z,13.33
2018-01-22T15:06:06.510Z,16.57
2018-01-22T15:08:34.030Z,11.20
2018-01-22T15:11:01.548Z,16.77
2018-01-22T15:13:29.814Z,17.53
2018-01-22T15:15:58.104Z,21.67
2018-01-22T15:18:26.411Z,12.20
2018-01-22T15:20:53.957Z,14.83
2018-01-22T15:23:26.420Z,12.67
2018-01-22T15:25:54.904Z,10.50
2018-01-22T15:28:22.451Z,16.80
2018-01-22T15:30:50.219Z,18.40
2018-01-22T15:33:18.643Z,25.30
2018-01-22T15:35:46.330Z,24.17
2018-01-22T15:38:13.838Z,32.03
2018-01-22T15:40:41.683Z,26.27
2018-01-22T15:43:09.955Z,19.53
2018-01-22T15:45:38.280Z,14.37
2018-01-22T15:48:07.170Z,25.87
2018-01-22T15:50:34.805Z,11.33
2018-01-22T15:53:02.348Z,21.43
2018-01-22T15:55:34.470Z,20.00
2018-01-22T15:58:07.570Z,16.43
2018-01-22T16:00:35.939Z,52.53
2018-01-22T16:03:03.653Z,26.60
2018-01-22T16:05:33.427Z,55.23
2018-01-22T16:08:02.007Z,59.10
2018-01-22T16:10:30.640Z,19.83
2018-01-22T16:12:59.033Z,20.73
2018-01-22T16:15:26.795Z,16.23
2018-01-22T16:17:56.637Z,12.73
2018-01-22T16:20:24.206Z,21.27
2018-01-22T16:22:51.837Z,18.50
2018-01-22T16:25:19.725Z,15.40
2018-01-22T16:27:47.271Z,15.63
2018-01-22T16:30:14.804Z,18.93
2018-01-22T16:32:42.347Z,20.10
2018-01-22T16:35:10.650Z,11.60
2018-01-22T16:37:38.268Z,18.43
2018-01-22T16:40:05.831Z,45.83
2018-01-22T16:42:33.600Z,18.20
2018-01-22T16:45:02.057Z,14.33
2018-01-22T16:47:36.220Z,16.50
2018-01-22T16:50:03.853Z,19.47
2018-01-22T16:52:31.433Z,18.90
2018-01-22T16:54:59.071Z,16.53
2018-01-22T16:57:27.496Z,20.10
2018-01-22T16:59:55.270Z,32.17
2018-01-22T17:02:22.768Z,19.33
2018-01-22T17:04:51.071Z,22.20
2018-01-22T17:07:19.379Z,29.20
2018-01-22T17:09:46.881Z,10.80
2018-01-22T17:12:14.384Z,22.33
2018-01-22T17:14:42.023Z,13.80
2018-01-22T17:17:10.329Z,24.83
2018-01-22T17:19:38.971Z,19.07
2018-01-22T17:22:07.259Z,23.47
2018-01-22T17:24:35.547Z,31.73
2018-01-22T17:27:03.082Z,32.70
2018-01-22T17:29:30.600Z,75.97
2018-01-22T17:31:58.134Z,186.70
2018-01-22T17:34:25.650Z,58.13
2018-01-22T17:36:53.213Z,18.23
2018-01-22T17:39:20.780Z,24.70
2018-01-22T17:41:48.327Z,34.57
2018-01-22T17:44:15.822Z,15.47
2018-01-22T17:46:43.439Z,18.17
2018-01-22T17:49:10.982Z,20.43
2018-01-22T17:51:38.491Z,20.57
2018-01-22T17:54:06.774Z,19.83
2018-01-22T17:56:37.905Z,16.93
2018-01-22T17:59:05.711Z,22.00
2018-01-22T18:01:33.407Z,12.23
2018-01-22T18:04:00.942Z,15.47
2018-01-22T18:06:28.472Z,15.47
2018-01-22T18:08:56.024Z,19.93
2018-01-22T18:11:24.297Z,13.33
2018-01-22T18:13:52.780Z,24.10
2018-01-22T18:16:21.079Z,21.90
2018-01-22T18:18:48.724Z,15.57
2018-01-22T18:21:17.032Z,21.63
2018-01-22T18:23:44.545Z,16.77
2018-01-22T18:26:12.846Z,21.70
2018-01-22T18:28:40.364Z,35.77
2018-01-22T18:31:07.903Z,20.63
2018-01-22T18:33:35.406Z,16.60
2018-01-22T18:36:03.680Z,14.93
2018-01-22T18:38:31.976Z,25.03
2018-01-22T18:40:59.478Z,17.97
2018-01-22T18:43:27.000Z,11.30
2018-01-22T18:45:54.522Z,21.03
2018-01-22T18:48:22.019Z,15.70
2018-01-22T18:50:49.548Z,18.43
2018-01-22T18:53:17.901Z,19.50
2018-01-22T18:55:46.931Z,22.30
2018-01-22T18:58:14.474Z,30.20
2018-01-22T19:00:41.972Z,22.47
2018-01-22T19:03:09.498Z,23.00
2018-01-22T19:05:37.783Z,14.97
2018-01-22T19:08:06.086Z,27.77
2018-01-22T19:10:33.586Z,26.03
2018-01-22T19:13:01.078Z,20.20
2018-01-22T19:15:30.989Z,30.30
2018-01-22T19:17:58.515Z,36.60
2018-01-22T19:20:29.087Z,30.20
2018-01-22T19:22:57.355Z,12.23
2018-01-22T19:25:26.693Z,15.63
2018-01-22T19:27:54.344Z,21.97
2018-01-22T19:30:23.070Z,33.07
2018-01-22T19:32:50.607Z,19.90
2018-01-22T19:35:19.383Z,26.37
2018-01-22T19:37:47.644Z,26.30
2018-01-22T19:40:15.152Z,17.73
2018-01-22T19:42:43.018Z,13.87
2018-01-22T19:45:10.525Z,22.37
2018-01-22T19:47:38.887Z,21.40
2018-01-22T19:50:06.429Z,16.33
2018-01-22T19:52:34.736Z,20.10
2018-01-22T19:55:03.036Z,12.43
2018-01-22T19:57:30.539Z,25.83
2018-01-22T19:59:58.528Z,19.50
2018-01-22T20:02:27.403Z,21.53
2018-01-22T20:04:55.678Z,15.63
2018-01-22T20:07:23.206Z,19.43
2018-01-22T20:09:50.706Z,19.57
2018-01-22T20:12:18.225Z,17.77
2018-01-22T20:14:45.741Z,12.37
2018-01-22T20:17:14.032Z,15.10
2018-01-22T20:19:41.619Z,17.90
2018-01-22T20:22:10.947Z,25.83
2018-01-22T20:24:39.307Z,22.50
2018-01-22T20:27:06.905Z,26.97
2018-01-22T20:29:35.214Z,30.60
2018-01-22T20:32:02.814Z,28.87
2018-01-22T20:34:30.416Z,28.13
2018-01-22T20:36:57.960Z,26.63
2018-01-22T20:39:27.080Z,15.73
2018-01-22T20:41:54.635Z,28.97
2018-01-22T20:44:22.197Z,34.03
2018-01-22T20:46:49.748Z,17.77
2018-01-22T20:49:18.098Z,31.47
2018-01-22T20:51:45.655Z,20.40
2018-01-22T20:54:13.167Z,20.00
2018-01-22T20:56:40.705Z,26.17
2018-01-22T20:59:08.974Z,28.23
2018-01-22T21:01:37.319Z,19.33
2018-01-22T21:04:04.876Z,24.83
2018-01-22T21:06:32.436Z,31.07
2018-01-22T21:08:59.980Z,17.80
2018-01-22T21:11:27.542Z,22.60
2018-01-22T21:13:55.037Z,14.40
2018-01-22T21:16:22.624Z,22.40
2018-01-22T21:18:50.213Z,20.10
2018-01-22T21:21:17.743Z,21.27
2018-01-22T21:23:46.126Z,20.03
2018-01-22T21:26:13.631Z,15.43
2018-01-22T21:28:41.126Z,21.37
2018-01-22T21:31:09.420Z,20.67
2018-01-22T21:33:37.712Z,14.60
2018-01-22T21:36:05.302Z,21.60
2018-01-22T21:38:32.837Z,18.57
2018-01-22T21:41:00.404Z,16.43
2018-01-22T21:43:27.967Z,23.57
2018-01-22T21:45:56.347Z,17.60
2018-01-22T21:48:23.883Z,26.50
2018-01-22T21:50:51.396Z,26.60
2018-01-22T21:53:18.942Z,33.27
2018-01-22T21:55:46.497Z,34.20
2018-01-22T21:58:14.055Z,23.47
2018-01-22T22:00:41.600Z,16.20
2018-01-22T22:03:09.099Z,21.00
2018-01-22T22:05:36.601Z,19.87
2018-01-22T22:08:04.134Z,16.90
2018-01-22T22:10:32.411Z,21.63
2018-01-22T22:13:00.764Z,30.70
2018-01-22T22:15:28.314Z,20.83
2018-01-22T22:17:55.871Z,26.10
2018-01-22T22:20:23.446Z,22.53
2018-01-22T22:22:50.953Z,23.50
2018-01-22T22:25:18.482Z,21.80
2018-01-22T22:30:20.715Z,34.87
2018-01-22T22:32:48.216Z,22.63
2018-01-22T22:35:15.742Z,17.17
2018-01-22T22:37:43.267Z,26.40
2018-01-22T22:40:10.856Z,19.63
2018-01-22T22:42:38.915Z,27.00
2018-01-22T22:45:06.476Z,35.17
2018-01-22T22:47:34.016Z,16.50
2018-01-22T22:50:01.585Z,24.17
2018-01-22T22:52:29.124Z,29.97
2018-01-22T22:54:57.455Z,27.00
2018-01-22T22:57:25.758Z,22.63
2018-01-22T22:59:53.282Z,31.13
2018-01-22T23:02:20.835Z,27.93
2018-01-22T23:04:48.378Z,19.00
2018-01-22T23:07:15.892Z,31.43
2018-01-22T23:09:43.416Z,16.37
2018-01-22T23:12:10.946Z,15.37
2018-01-22T23:14:38.458Z,17.03
2018-01-22T23:17:05.978Z,16.37
2018-01-22T23:19:33.482Z,22.70
2018-01-22T23:22:01.010Z,16.37
2018-01-22T23:24:28.508Z,23.53
2018-01-22T23:26:56.034Z,19.60
2018-01-22T23:29:23.575Z,37.00
2018-01-22T23:31:51.078Z,15.57
2018-01-22T23:34:18.583Z,21.97
2018-01-22T23:36:46.114Z,19.60
2018-01-22T23:39:14.406Z,31.53
2018-01-22T23:41:42.722Z,22.37
2018-01-22T23:44:10.261Z,24.80
2018-01-22T23:46:37.788Z,22.37
2018-01-22T23:49:06.076Z,21.93
2018-01-22T23:51:34.348Z,21.10
2018-01-22T23:54:02.638Z,21.70
2018-01-22T23:56:30.163Z,20.67
2018-01-22T23:58:57.664Z,17.87
